createdAt,value
2023-02-01T00:00:56.303Z,6.27
2023-02-01T00:01:56.307Z,6.24
2023-02-01T00:02:56.358Z,6.30
2023-02-01T00:03:56.333Z,6.24
2023-02-01T00:04:56.292Z,6.21
2023-02-01T00:05:56.256Z,6.19
2023-02-01T00:06:56.280Z,6.17
2023-02-01T00:07:56.405Z,6.19
2023-02-01T00:08:56.222Z,6.20
2023-02-01T00:09:56.227Z,6.20
2023-02-01T00:10:56.199Z,6.17
2023-02-01T00:11:56.252Z,6.21
2023-02-01T00:12:56.235Z,6.17
2023-02-01T00:13:56.168Z,6.25
2023-02-01T00:14:56.175Z,6.20
2023-02-01T00:15:56.162Z,6.27
2023-02-01T00:16:56.160Z,6.17
2023-02-01T00:17:56.144Z,6.14
2023-02-01T00:18:56.263Z,6.19
2023-02-01T00:19:56.974Z,6.20
2023-02-01T00:20:56.094Z,6.17
2023-02-01T00:21:56.114Z,6.20
2023-02-01T00:22:56.082Z,6.20
2023-02-01T00:23:56.061Z,6.19
2023-02-01T00:24:56.054Z,6.17
2023-02-01T00:25:56.093Z,6.20
2023-02-01T00:26:56.117Z,6.19
2023-02-01T00:27:56.013Z,6.25
2023-02-01T00:28:56.063Z,6.17
2023-02-01T00:29:56.011Z,6.08
2023-02-01T00:30:56.104Z,6.11
2023-02-01T00:31:56.092Z,6.14
2023-02-01T00:32:56.011Z,6.14
2023-02-01T00:33:55.973Z,6.11
2023-02-01T00:34:55.972Z,6.02
2023-02-01T00:35:55.946Z,5.96
2023-02-01T00:36:55.960Z,6.02
2023-02-01T00:37:55.935Z,5.96
2023-02-01T00:38:55.924Z,6.03
2023-02-01T00:39:55.986Z,6.01
2023-02-01T00:40:55.916Z,6.02
2023-02-01T00:41:55.890Z,6.03
2023-02-01T00:42:55.863Z,6.13
2023-02-01T00:43:55.856Z,6.16
2023-02-01T00:44:55.889Z,6.14
2023-02-01T00:45:55.839Z,6.11
2023-02-01T00:46:55.968Z,6.10
2023-02-01T00:47:55.805Z,6.13
2023-02-01T00:48:55.836Z,6.01
2023-02-01T00:49:55.786Z,6.06
2023-02-01T00:50:55.774Z,5.98
2023-02-01T00:51:55.768Z,6.01
2023-02-01T00:52:55.778Z,6.06
2023-02-01T00:53:55.759Z,5.99
2023-02-01T00:54:55.747Z,6.02
2023-02-01T00:55:55.714Z,5.99
2023-02-01T00:56:55.854Z,6.03
2023-02-01T00:57:55.731Z,5.99
2023-02-01T00:58:55.701Z,5.99
2023-02-01T00:59:55.681Z,6.05
2023-02-01T01:00:55.784Z,5.99
2023-02-01T01:01:55.767Z,6.01
2023-02-01T01:02:55.647Z,5.99
2023-02-01T01:03:55.684Z,5.99
2023-02-01T01:04:55.912Z,6.01
2023-02-01T01:05:55.623Z,5.98
2023-02-01T01:06:55.689Z,6.08
2023-02-01T01:07:55.592Z,5.99
2023-02-01T01:08:55.648Z,5.99
2023-02-01T01:09:55.583Z,5.98
2023-02-01T01:10:55.611Z,5.99
2023-02-01T01:11:55.584Z,5.99
2023-02-01T01:12:55.581Z,5.90
2023-02-01T01:13:55.527Z,5.98
2023-02-01T01:14:55.546Z,6.01
2023-02-01T01:15:55.520Z,5.92
2023-02-01T01:16:55.532Z,6.02
2023-02-01T01:17:55.488Z,6.01
2023-02-01T01:18:55.533Z,5.99
2023-02-01T01:19:55.463Z,5.99
2023-02-01T01:20:55.470Z,5.93
2023-02-01T01:21:55.504Z,5.95
2023-02-01T01:22:55.437Z,5.95
2023-02-01T01:23:55.443Z,5.95
2023-02-01T01:24:55.408Z,5.95
2023-02-01T01:25:55.448Z,5.90
2023-02-01T01:26:55.485Z,5.93
2023-02-01T01:27:55.389Z,5.92
2023-02-01T01:28:55.468Z,5.93
2023-02-01T01:29:55.353Z,5.90
2023-02-01T01:30:55.397Z,5.95
2023-02-01T01:31:55.449Z,5.95
2023-02-01T01:32:55.358Z,5.95
2023-02-01T01:33:55.370Z,6.01
2023-02-01T01:34:55.310Z,5.92
2023-02-01T01:35:55.296Z,5.88
2023-02-01T01:36:55.316Z,5.87
2023-02-01T01:37:55.324Z,5.88
2023-02-01T01:38:55.293Z,5.93
2023-02-01T01:39:55.255Z,5.95
2023-02-01T01:40:55.242Z,5.96
2023-02-01T01:41:55.248Z,5.95
2023-02-01T01:42:55.264Z,5.93
2023-02-01T01:43:55.219Z,5.93
2023-02-01T01:44:55.196Z,5.87
2023-02-01T01:45:55.197Z,5.88
2023-02-01T01:46:55.224Z,5.93
2023-02-01T01:47:55.168Z,5.92
2023-02-01T01:48:55.186Z,5.85
2023-02-01T01:49:55.161Z,5.96
2023-02-01T01:50:55.138Z,5.87
2023-02-01T01:51:55.140Z,5.84
2023-02-01T01:52:55.114Z,5.93
2023-02-01T01:53:55.107Z,5.84
2023-02-01T01:54:55.112Z,5.92
2023-02-01T01:55:55.190Z,5.74
2023-02-01T01:56:55.117Z,5.85
2023-02-01T01:57:55.084Z,5.83
2023-02-01T01:58:55.053Z,5.81
2023-02-01T01:59:55.086Z,5.78
2023-02-01T02:00:55.121Z,5.78
2023-02-01T02:01:55.052Z,5.77
2023-02-01T02:02:55.013Z,5.78
2023-02-01T02:03:55.053Z,5.77
2023-02-01T02:04:55.003Z,5.77
2023-02-01T02:05:54.993Z,5.78
2023-02-01T02:06:55.016Z,5.77
2023-02-01T02:07:54.966Z,5.84
2023-02-01T02:08:54.944Z,5.87
2023-02-01T02:10:00.826Z,5.87
2023-02-01T02:10:55.956Z,5.81
2023-02-01T02:11:54.938Z,5.87
2023-02-01T02:12:54.899Z,5.77
2023-02-01T02:13:54.929Z,5.84
2023-02-01T02:14:54.879Z,5.81
2023-02-01T02:15:54.867Z,5.78
2023-02-01T02:16:54.874Z,5.75
2023-02-01T02:17:54.843Z,5.83
2023-02-01T02:18:54.836Z,5.84
2023-02-01T02:19:54.830Z,5.81
2023-02-01T02:20:54.832Z,5.75
2023-02-01T02:21:54.826Z,5.75
2023-02-01T02:22:54.790Z,5.80
2023-02-01T02:23:54.791Z,5.74
2023-02-01T02:24:54.818Z,5.77
2023-02-01T02:25:54.761Z,5.78
2023-02-01T02:26:54.764Z,5.75
2023-02-01T02:27:54.735Z,5.83
2023-02-01T02:28:54.722Z,5.84
2023-02-01T02:29:54.718Z,5.80
2023-02-01T02:30:54.763Z,5.80
2023-02-01T02:31:54.792Z,5.77
2023-02-01T02:32:54.682Z,5.80
2023-02-01T02:33:54.673Z,5.74
2023-02-01T02:34:54.662Z,5.74
2023-02-01T02:35:54.653Z,5.75
2023-02-01T02:36:54.677Z,5.81
2023-02-01T02:37:54.683Z,5.74
2023-02-01T02:38:54.618Z,5.74
2023-02-01T02:39:54.608Z,5.73
2023-02-01T02:40:54.595Z,5.80
2023-02-01T02:41:54.609Z,5.65
2023-02-01T02:42:55.032Z,5.73
2023-02-01T02:43:54.588Z,5.77
2023-02-01T02:44:54.576Z,5.69
2023-02-01T02:45:54.638Z,5.78
2023-02-01T02:46:54.588Z,5.78
2023-02-01T02:47:54.542Z,5.73
2023-02-01T02:48:54.519Z,5.78
2023-02-01T02:49:54.516Z,5.81
2023-02-01T02:50:54.509Z,5.77
2023-02-01T02:51:54.521Z,5.73
2023-02-01T02:52:54.509Z,5.77
2023-02-01T02:53:54.479Z,5.77
2023-02-01T02:54:54.636Z,5.70
2023-02-01T02:55:54.452Z,5.74
2023-02-01T02:56:54.432Z,5.75
2023-02-01T02:57:54.457Z,5.81
2023-02-01T02:58:54.412Z,5.73
2023-02-01T02:59:54.413Z,5.73
2023-02-01T03:00:54.433Z,5.73
2023-02-01T03:01:54.410Z,5.83
2023-02-01T03:02:54.457Z,5.75
2023-02-01T03:03:54.366Z,5.67
2023-02-01T03:04:54.355Z,5.77
2023-02-01T03:05:54.375Z,5.77
2023-02-01T03:06:54.526Z,5.78
2023-02-01T03:07:54.371Z,5.80
2023-02-01T03:08:54.430Z,5.77
2023-02-01T03:09:54.292Z,5.80
2023-02-01T03:10:54.296Z,5.74
2023-02-01T03:11:54.292Z,5.69
2023-02-01T03:12:54.275Z,5.80
2023-02-01T03:13:54.262Z,5.74
2023-02-01T03:14:54.278Z,5.74
2023-02-01T03:15:54.244Z,5.74
2023-02-01T03:16:54.308Z,5.78
2023-02-01T03:17:54.220Z,5.78
2023-02-01T03:18:54.208Z,5.81
2023-02-01T03:19:54.195Z,5.81
2023-02-01T03:20:54.192Z,5.75
2023-02-01T03:21:56.055Z,5.77
2023-02-01T03:22:54.187Z,5.75
2023-02-01T03:23:54.158Z,5.77
2023-02-01T03:24:54.155Z,5.80
2023-02-01T03:25:54.135Z,5.87
2023-02-01T03:26:54.136Z,5.75
2023-02-01T03:27:54.110Z,5.75
2023-02-01T03:28:54.097Z,5.77
2023-02-01T03:29:54.109Z,5.78
2023-02-01T03:30:54.148Z,5.77
2023-02-01T03:31:54.142Z,5.73
2023-02-01T03:32:54.061Z,5.69
2023-02-01T03:33:54.046Z,5.80
2023-02-01T03:34:54.046Z,5.83
2023-02-01T03:35:54.011Z,5.75
2023-02-01T03:36:54.024Z,5.74
2023-02-01T03:37:54.024Z,5.73
2023-02-01T03:38:53.997Z,5.63
2023-02-01T03:39:53.980Z,5.74
2023-02-01T03:40:54.004Z,5.77
2023-02-01T03:41:53.994Z,5.80
2023-02-01T03:42:53.954Z,5.74
2023-02-01T03:43:53.932Z,5.67
2023-02-01T03:44:53.926Z,5.74
2023-02-01T03:45:53.954Z,5.77
2023-02-01T03:46:53.976Z,5.67
2023-02-01T03:47:53.904Z,5.69
2023-02-01T03:48:53.907Z,5.67
2023-02-01T03:49:53.886Z,5.73
2023-02-01T03:50:53.867Z,5.65
2023-02-01T03:51:53.934Z,5.56
2023-02-01T03:52:53.850Z,5.56
2023-02-01T03:53:53.835Z,5.58
2023-02-01T03:54:53.828Z,5.62
2023-02-01T03:55:53.844Z,5.58
2023-02-01T03:56:53.830Z,5.52
2023-02-01T03:57:53.789Z,5.56
2023-02-01T03:58:53.773Z,5.51
2023-02-01T03:59:53.766Z,5.49
2023-02-01T04:00:53.792Z,5.41
2023-02-01T04:01:53.761Z,5.42
2023-02-01T04:02:53.735Z,5.42
2023-02-01T04:03:53.753Z,5.42
2023-02-01T04:04:53.729Z,5.41
2023-02-01T04:05:53.705Z,5.44
2023-02-01T04:06:53.707Z,5.45
2023-02-01T04:07:53.684Z,5.35
2023-02-01T04:08:53.685Z,5.47
2023-02-01T04:09:53.710Z,5.37
2023-02-01T04:10:53.684Z,5.32
2023-02-01T04:11:53.691Z,5.38
2023-02-01T04:12:53.643Z,5.30
2023-02-01T04:13:53.619Z,5.32
2023-02-01T04:14:53.630Z,5.32
2023-02-01T04:15:53.600Z,5.33
2023-02-01T04:16:53.625Z,5.30
2023-02-01T04:17:53.599Z,5.40
2023-02-01T04:18:53.579Z,5.27
2023-02-01T04:19:55.465Z,5.27
2023-02-01T04:20:53.594Z,5.20
2023-02-01T04:21:53.546Z,5.24
2023-02-01T04:22:53.530Z,5.29
2023-02-01T04:23:53.504Z,5.32
2023-02-01T04:24:53.522Z,5.22
2023-02-01T04:25:53.488Z,5.19
2023-02-01T04:26:53.541Z,5.19
2023-02-01T04:27:53.470Z,5.15
2023-02-01T04:28:53.465Z,5.23
2023-02-01T04:29:53.437Z,5.23
2023-02-01T04:30:53.506Z,5.22
2023-02-01T04:31:53.526Z,5.22
2023-02-01T04:32:53.439Z,5.19
2023-02-01T04:33:53.395Z,5.24
2023-02-01T04:34:53.391Z,5.14
2023-02-01T04:35:53.392Z,5.15
2023-02-01T04:36:53.377Z,5.22
2023-02-01T04:37:53.354Z,5.14
2023-02-01T04:38:53.349Z,5.14
2023-02-01T04:39:53.337Z,5.20
2023-02-01T04:40:53.319Z,5.19
2023-02-01T04:41:53.349Z,5.14
2023-02-01T04:42:53.305Z,5.12
2023-02-01T04:43:53.365Z,5.11
2023-02-01T04:44:53.300Z,5.08
2023-02-01T04:45:53.345Z,5.08
2023-02-01T04:46:53.271Z,5.04
2023-02-01T04:47:53.256Z,5.11
2023-02-01T04:48:53.249Z,5.06
2023-02-01T04:49:53.392Z,5.15
2023-02-01T04:50:53.227Z,5.02
2023-02-01T04:51:53.355Z,5.08
2023-02-01T04:52:53.215Z,4.99
2023-02-01T04:53:53.271Z,4.96
2023-02-01T04:54:53.240Z,4.96
2023-02-01T04:55:53.158Z,4.91
2023-02-01T04:56:53.174Z,4.94
2023-02-01T04:57:53.142Z,4.87
2023-02-01T04:58:53.134Z,4.87
2023-02-01T04:59:53.132Z,4.96
2023-02-01T05:00:53.125Z,4.99
2023-02-01T05:01:53.121Z,4.97
2023-02-01T05:02:53.085Z,4.94
2023-02-01T05:03:53.075Z,4.99
2023-02-01T05:04:53.143Z,4.94
2023-02-01T05:05:53.061Z,5.02
2023-02-01T05:06:53.070Z,5.05
2023-02-01T05:07:53.064Z,4.99
2023-02-01T05:08:53.024Z,4.99
2023-02-01T05:09:53.009Z,5.05
2023-02-01T05:10:53.001Z,5.04
2023-02-01T05:11:53.014Z,5.08
2023-02-01T05:12:53.003Z,5.08
2023-02-01T05:13:52.969Z,5.11
2023-02-01T05:14:52.974Z,5.08
2023-02-01T05:15:53.056Z,5.06
2023-02-01T05:16:52.957Z,5.11
2023-02-01T05:17:52.951Z,5.09
2023-02-01T05:18:52.920Z,5.06
2023-02-01T05:19:52.906Z,5.14
2023-02-01T05:20:52.914Z,5.09
2023-02-01T05:21:52.890Z,5.12
2023-02-01T05:22:52.939Z,5.06
2023-02-01T05:23:52.870Z,5.08
2023-02-01T05:24:52.855Z,5.06
2023-02-01T05:25:52.844Z,5.14
2023-02-01T05:26:52.895Z,5.11
2023-02-01T05:27:53.514Z,5.08
2023-02-01T05:28:52.807Z,5.11
2023-02-01T05:29:52.800Z,5.11
2023-02-01T05:30:52.893Z,5.06
2023-02-01T05:31:52.967Z,5.02
2023-02-01T05:32:52.801Z,4.94
2023-02-01T05:33:52.758Z,5.02
2023-02-01T05:34:52.751Z,5.06
2023-02-01T05:35:52.745Z,5.01
2023-02-01T05:36:52.742Z,5.04
2023-02-01T05:37:52.717Z,5.02
2023-02-01T05:38:52.708Z,5.06
2023-02-01T05:39:52.697Z,5.02
2023-02-01T05:40:52.686Z,5.02
2023-02-01T05:41:52.713Z,5.02
2023-02-01T05:42:52.676Z,5.06
2023-02-01T05:43:52.670Z,4.99
2023-02-01T05:44:52.692Z,4.96
2023-02-01T05:45:52.637Z,5.01
2023-02-01T05:46:52.679Z,5.08
2023-02-01T05:47:52.660Z,4.99
2023-02-01T05:48:52.636Z,4.94
2023-02-01T05:49:52.595Z,4.94
2023-02-01T05:50:52.579Z,4.91
2023-02-01T05:51:52.640Z,4.93
2023-02-01T05:52:52.575Z,4.88
2023-02-01T05:53:52.554Z,4.79
2023-02-01T05:54:52.530Z,4.86
2023-02-01T05:55:52.534Z,4.87
2023-02-01T05:56:52.526Z,4.86
2023-02-01T05:57:52.538Z,4.90
2023-02-01T05:58:52.505Z,4.87
2023-02-01T05:59:52.479Z,4.96
2023-02-01T06:00:52.467Z,4.96
2023-02-01T06:01:52.469Z,4.93
2023-02-01T06:02:52.576Z,4.96
2023-02-01T06:03:52.468Z,4.96
2023-02-01T06:04:52.456Z,4.94
2023-02-01T06:05:52.414Z,5.02
2023-02-01T06:06:52.408Z,4.93
2023-02-01T06:07:52.419Z,4.90
2023-02-01T06:08:52.381Z,4.94
2023-02-01T06:09:52.378Z,4.93
2023-02-01T06:10:52.369Z,4.94
2023-02-01T06:11:52.356Z,4.93
2023-02-01T06:12:52.426Z,4.88
2023-02-01T06:13:52.373Z,4.88
2023-02-01T06:14:52.320Z,4.87
2023-02-01T06:15:52.415Z,4.87
2023-02-01T06:16:52.303Z,4.86
2023-02-01T06:17:52.297Z,4.90
2023-02-01T06:18:52.305Z,4.91
2023-02-01T06:19:52.316Z,4.87
2023-02-01T06:20:52.278Z,4.91
2023-02-01T06:21:52.245Z,5.01
2023-02-01T06:22:52.241Z,4.94
2023-02-01T06:23:52.234Z,4.90
2023-02-01T06:24:52.231Z,4.94
2023-02-01T06:25:52.235Z,4.91
2023-02-01T06:26:52.233Z,4.96
2023-02-01T06:27:52.187Z,4.94
2023-02-01T06:28:52.171Z,5.06
2023-02-01T06:29:52.248Z,4.97
2023-02-01T06:30:52.230Z,4.90
2023-02-01T06:31:52.211Z,4.94
2023-02-01T06:32:52.153Z,5.02
2023-02-01T06:33:52.131Z,4.97
2023-02-01T06:34:52.111Z,4.96
2023-02-01T06:35:52.118Z,4.99
2023-02-01T06:36:52.109Z,4.90
2023-02-01T06:37:52.171Z,4.91
2023-02-01T06:38:52.074Z,4.96
2023-02-01T06:39:52.066Z,4.94
2023-02-01T06:40:52.049Z,4.93
2023-02-01T06:41:52.031Z,4.97
2023-02-01T06:42:52.047Z,4.96
2023-02-01T06:43:52.062Z,4.93
2023-02-01T06:44:52.036Z,4.96
2023-02-01T06:45:51.992Z,4.91
2023-02-01T06:46:52.007Z,4.96
2023-02-01T06:47:51.999Z,5.01
2023-02-01T06:48:51.981Z,4.97
2023-02-01T06:49:51.948Z,4.96
2023-02-01T06:50:51.967Z,5.01
2023-02-01T06:51:51.928Z,4.94
2023-02-01T06:52:51.979Z,5.04
2023-02-01T06:53:51.914Z,5.02
2023-02-01T06:54:51.897Z,5.02
2023-02-01T06:55:51.884Z,4.99
2023-02-01T06:56:51.873Z,5.02
2023-02-01T06:57:51.910Z,5.05
2023-02-01T06:58:51.855Z,5.02
2023-02-01T06:59:51.842Z,5.01
2023-02-01T07:00:51.869Z,5.08
2023-02-01T07:01:51.905Z,5.01
2023-02-01T07:02:51.842Z,4.97
2023-02-01T07:03:51.865Z,5.05
2023-02-01T07:04:51.787Z,5.09
2023-02-01T07:05:51.777Z,5.09
2023-02-01T07:06:51.765Z,5.11
2023-02-01T07:07:51.774Z,5.11
2023-02-01T07:08:51.806Z,5.14
2023-02-01T07:09:51.780Z,5.11
2023-02-01T07:10:51.723Z,5.06
2023-02-01T07:11:51.720Z,5.09
2023-02-01T07:12:51.723Z,5.14
2023-02-01T07:13:51.698Z,5.09
2023-02-01T07:14:51.725Z,5.08
2023-02-01T07:15:51.888Z,5.12
2023-02-01T07:16:51.660Z,5.05
2023-02-01T07:17:51.683Z,5.11
2023-02-01T07:18:51.638Z,5.08
2023-02-01T07:19:51.655Z,5.09
2023-02-01T07:20:51.640Z,5.09
2023-02-01T07:21:51.608Z,5.11
2023-02-01T07:22:51.621Z,5.20
2023-02-01T07:23:51.589Z,5.19
2023-02-01T07:24:51.651Z,5.12
2023-02-01T07:25:51.564Z,5.08
2023-02-01T07:26:51.645Z,5.02
2023-02-01T07:27:51.563Z,5.12
2023-02-01T07:28:51.532Z,5.15
2023-02-01T07:29:51.536Z,5.17
2023-02-01T07:30:51.598Z,5.08
2023-02-01T07:31:51.510Z,5.11
2023-02-01T07:32:51.562Z,5.08
2023-02-01T07:33:51.478Z,5.12
2023-02-01T07:34:51.466Z,5.05
2023-02-01T07:35:51.471Z,5.11
2023-02-01T07:36:51.446Z,5.12
2023-02-01T07:37:51.464Z,5.09
2023-02-01T07:38:51.423Z,5.09
2023-02-01T07:39:51.414Z,5.11
2023-02-01T07:40:51.435Z,5.04
2023-02-01T07:41:51.392Z,5.06
2023-02-01T07:42:51.403Z,4.97
2023-02-01T07:43:51.373Z,4.99
2023-02-01T07:44:51.371Z,5.01
2023-02-01T07:45:51.387Z,4.99
2023-02-01T07:46:51.352Z,4.96
2023-02-01T07:47:51.351Z,4.90
2023-02-01T07:48:51.323Z,4.93
2023-02-01T07:49:51.342Z,4.94
2023-02-01T07:50:51.302Z,4.93
2023-02-01T07:51:51.285Z,4.97
2023-02-01T07:52:51.303Z,4.96
2023-02-01T07:53:51.274Z,4.96
2023-02-01T07:54:51.281Z,4.94
2023-02-01T07:55:51.256Z,4.96
2023-02-01T07:56:51.259Z,4.97
2023-02-01T07:57:51.239Z,4.99
2023-02-01T07:58:51.216Z,5.05
2023-02-01T07:59:51.209Z,5.08
2023-02-01T08:00:51.210Z,5.15
2023-02-01T08:01:51.211Z,5.12
2023-02-01T08:02:51.205Z,5.20
2023-02-01T08:03:51.156Z,5.29
2023-02-01T08:04:51.145Z,5.19
2023-02-01T08:05:51.133Z,5.37
2023-02-01T08:06:51.124Z,5.27
2023-02-01T08:07:51.128Z,5.29
2023-02-01T08:08:51.101Z,5.32
2023-02-01T08:09:51.104Z,5.24
2023-02-01T08:10:51.081Z,5.42
2023-02-01T08:11:51.072Z,5.42
2023-02-01T08:12:51.105Z,5.35
2023-02-01T08:13:51.058Z,5.33
2023-02-01T08:14:51.060Z,5.37
2023-02-01T08:15:51.068Z,5.30
2023-02-01T08:16:51.083Z,5.37
2023-02-01T08:17:51.028Z,5.37
2023-02-01T08:18:50.996Z,5.27
2023-02-01T08:19:50.995Z,5.40
2023-02-01T08:20:50.977Z,5.27
2023-02-01T08:21:51.003Z,5.30
2023-02-01T08:22:53.206Z,5.37
2023-02-01T08:23:50.952Z,5.41
2023-02-01T08:24:50.931Z,5.33
2023-02-01T08:25:50.929Z,5.44
2023-02-01T08:26:50.942Z,5.47
2023-02-01T08:27:50.980Z,5.56
2023-02-01T08:28:50.919Z,5.67
2023-02-01T08:29:50.917Z,5.58
2023-02-01T08:30:50.899Z,5.63
2023-02-01T08:31:50.943Z,5.69
2023-02-01T08:32:50.871Z,5.60
2023-02-01T08:33:50.840Z,5.70
2023-02-01T08:34:50.866Z,5.69
2023-02-01T08:35:50.896Z,5.73
2023-02-01T08:36:50.812Z,5.59
2023-02-01T08:37:50.829Z,5.66
2023-02-01T08:38:50.796Z,5.65
2023-02-01T08:39:50.786Z,5.62
2023-02-01T08:40:50.816Z,5.62
2023-02-01T08:41:50.752Z,5.56
2023-02-01T08:42:50.770Z,5.59
2023-02-01T08:43:50.736Z,5.65
2023-02-01T08:44:50.760Z,5.62
2023-02-01T08:45:50.787Z,5.63
2023-02-01T08:46:50.847Z,5.62
2023-02-01T08:47:50.756Z,5.66
2023-02-01T08:48:50.676Z,5.63
2023-02-01T08:49:50.685Z,5.60
2023-02-01T08:50:50.703Z,5.60
2023-02-01T08:51:50.647Z,5.58
2023-02-01T08:52:50.662Z,5.59
2023-02-01T08:53:50.691Z,5.47
2023-02-01T08:54:50.618Z,5.49
2023-02-01T08:55:50.625Z,5.52
2023-02-01T08:56:50.634Z,5.47
2023-02-01T08:57:50.609Z,5.49
2023-02-01T08:58:50.572Z,5.52
2023-02-01T08:59:50.575Z,5.48
2023-02-01T09:00:50.705Z,5.45
2023-02-01T09:01:50.544Z,5.47
2023-02-01T09:02:50.564Z,5.49
2023-02-01T09:03:50.650Z,5.56
2023-02-01T09:04:50.528Z,5.55
2023-02-01T09:05:51.088Z,5.58
2023-02-01T09:06:50.500Z,5.65
2023-02-01T09:07:50.507Z,5.65
2023-02-01T09:08:50.513Z,5.67
2023-02-01T09:09:50.473Z,5.75
2023-02-01T09:10:50.460Z,5.81
2023-02-01T09:11:50.438Z,5.77
2023-02-01T09:12:50.455Z,5.93
2023-02-01T09:13:50.499Z,5.96
2023-02-01T09:14:50.478Z,6.03
2023-02-01T09:15:50.445Z,6.02
2023-02-01T09:16:50.403Z,6.11
2023-02-01T09:17:50.394Z,6.16
2023-02-01T09:18:56.098Z,6.20
2023-02-01T09:19:51.351Z,6.25
2023-02-01T09:20:50.339Z,6.14
2023-02-01T09:21:50.358Z,6.10
2023-02-01T09:22:50.347Z,6.19
2023-02-01T09:23:50.320Z,6.33
2023-02-01T09:24:50.385Z,6.21
2023-02-01T09:25:50.288Z,6.24
2023-02-01T09:26:50.363Z,6.24
2023-02-01T09:27:50.332Z,6.20
2023-02-01T09:28:50.259Z,6.20
2023-02-01T09:29:50.252Z,6.25
2023-02-01T09:30:50.341Z,6.25
2023-02-01T09:32:03.004Z,6.35
2023-02-01T09:32:51.320Z,6.38
2023-02-01T09:33:50.211Z,6.53
2023-02-01T09:34:50.213Z,6.65
2023-02-01T09:35:50.186Z,7.01
2023-02-01T09:36:50.174Z,6.90
2023-02-01T09:37:50.212Z,6.94
2023-02-01T09:38:53.579Z,7.07
2023-02-01T09:39:50.171Z,6.96
2023-02-01T09:40:50.193Z,6.79
2023-02-01T09:41:50.114Z,6.71
2023-02-01T09:42:50.128Z,6.60
2023-02-01T09:43:50.107Z,6.58
2023-02-01T09:44:50.107Z,6.46
2023-02-01T09:45:50.175Z,6.51
2023-02-01T09:46:50.071Z,6.51
2023-02-01T09:47:50.077Z,7.00
2023-02-01T09:48:50.107Z,7.24
2023-02-01T09:49:50.069Z,7.21
2023-02-01T09:50:50.021Z,7.45
2023-02-01T09:51:50.014Z,7.45
2023-02-01T09:52:50.039Z,7.37
2023-02-01T09:53:49.986Z,7.29
2023-02-01T09:54:49.981Z,7.26
2023-02-01T09:55:50.004Z,7.33
2023-02-01T09:56:49.957Z,7.63
2023-02-01T09:57:49.981Z,7.66
2023-02-01T09:58:49.957Z,7.58
2023-02-01T09:59:49.920Z,7.54
2023-02-01T10:00:49.917Z,7.52
2023-02-01T10:01:49.984Z,7.71
2023-02-01T10:02:49.908Z,8.09
2023-02-01T10:03:50.008Z,8.61
2023-02-01T10:04:49.962Z,8.65
2023-02-01T10:05:49.887Z,8.31
2023-02-01T10:06:49.848Z,8.25
2023-02-01T10:07:49.881Z,8.03
2023-02-01T10:08:49.848Z,7.86
2023-02-01T10:09:49.825Z,7.67
2023-02-01T10:10:49.853Z,7.73
2023-02-01T10:11:49.791Z,7.60
2023-02-01T10:12:49.804Z,7.62
2023-02-01T10:13:49.870Z,7.47
2023-02-01T10:14:49.771Z,7.45
2023-02-01T10:15:49.823Z,7.41
2023-02-01T10:16:49.871Z,7.47
2023-02-01T10:17:49.743Z,7.44
2023-02-01T10:18:49.725Z,7.44
2023-02-01T10:19:49.749Z,7.36
2023-02-01T10:20:49.727Z,7.39
2023-02-01T10:21:49.688Z,7.42
2023-02-01T10:23:13.761Z,7.42
2023-02-01T10:23:50.672Z,7.36
2023-02-01T10:24:49.671Z,7.36
2023-02-01T10:25:49.659Z,7.33
2023-02-01T10:26:49.723Z,7.42
2023-02-01T10:27:49.676Z,7.27
2023-02-01T10:28:49.618Z,7.26
2023-02-01T10:29:49.608Z,7.39
2023-02-01T10:30:49.670Z,7.42
2023-02-01T10:31:49.720Z,7.41
2023-02-01T10:32:49.609Z,7.37
2023-02-01T10:33:49.650Z,7.54
2023-02-01T10:34:49.559Z,7.52
2023-02-01T10:35:49.540Z,7.57
2023-02-01T10:36:49.550Z,7.60
2023-02-01T10:37:49.558Z,7.58
2023-02-01T10:38:49.504Z,7.57
2023-02-01T10:39:49.502Z,7.47
2023-02-01T10:40:49.518Z,7.51
2023-02-01T10:41:49.500Z,7.51
2023-02-01T10:42:49.512Z,7.52
2023-02-01T10:43:49.471Z,7.23
2023-02-01T10:44:49.448Z,7.23
2023-02-01T10:45:49.472Z,7.09
2023-02-01T10:46:49.475Z,7.11
2023-02-01T10:47:49.429Z,6.97
2023-02-01T10:48:49.410Z,6.94
2023-02-01T10:49:49.429Z,6.91
2023-02-01T10:50:49.400Z,6.83
2023-02-01T10:51:49.441Z,6.81
2023-02-01T10:52:49.388Z,6.71
2023-02-01T10:53:49.340Z,6.58
2023-02-01T10:54:49.338Z,6.58
2023-02-01T10:55:49.333Z,6.48
2023-02-01T10:56:49.445Z,6.53
2023-02-01T10:57:49.346Z,6.57
2023-02-01T10:58:49.298Z,6.40
2023-02-01T10:59:49.330Z,6.39
2023-02-01T11:00:49.316Z,6.32
2023-02-01T11:01:49.355Z,6.33
2023-02-01T11:02:49.246Z,6.32
2023-02-01T11:03:49.253Z,6.30
2023-02-01T11:04:49.241Z,6.32
2023-02-01T11:05:49.211Z,6.39
2023-02-01T11:06:49.204Z,6.48
2023-02-01T11:07:49.219Z,6.55
2023-02-01T11:08:49.297Z,6.58
2023-02-01T11:09:49.335Z,6.53
2023-02-01T11:10:49.158Z,6.60
2023-02-01T11:11:49.153Z,6.65
2023-02-01T11:12:49.178Z,6.69
2023-02-01T11:13:49.142Z,6.71
2023-02-01T11:14:49.173Z,6.57
2023-02-01T11:15:49.141Z,6.58
2023-02-01T11:16:49.103Z,6.72
2023-02-01T11:17:49.198Z,6.86
2023-02-01T11:18:49.175Z,6.83
2023-02-01T11:19:49.063Z,6.81
2023-02-01T11:20:49.052Z,6.90
2023-02-01T11:21:49.057Z,6.83
2023-02-01T11:22:49.061Z,6.94
2023-02-01T11:23:49.065Z,6.97
2023-02-01T11:24:49.072Z,7.00
2023-02-01T11:25:49.008Z,7.04
2023-02-01T11:26:49.151Z,7.04
2023-02-01T11:27:54.826Z,7.07
2023-02-01T11:28:49.969Z,7.14
2023-02-01T11:29:48.963Z,7.12
2023-02-01T11:30:49.008Z,7.26
2023-02-01T11:31:48.976Z,7.27
2023-02-01T11:32:48.953Z,7.26
2023-02-01T11:33:48.956Z,7.30
2023-02-01T11:34:48.943Z,7.41
2023-02-01T11:35:48.954Z,7.48
2023-02-01T11:36:48.903Z,7.50
2023-02-01T11:37:48.882Z,7.58
2023-02-01T11:38:48.873Z,7.63
2023-02-01T11:39:48.846Z,7.60
2023-02-01T11:40:48.859Z,7.69
2023-02-01T11:41:48.867Z,7.77
2023-02-01T11:42:48.851Z,7.82
2023-02-01T11:43:48.815Z,7.99
2023-02-01T11:44:48.936Z,8.03
2023-02-01T11:45:48.913Z,8.10
2023-02-01T11:46:48.804Z,8.00
2023-02-01T11:47:48.798Z,8.04
2023-02-01T11:48:48.779Z,7.99
2023-02-01T11:49:48.778Z,7.99
2023-02-01T11:50:48.739Z,8.13
2023-02-01T11:51:48.775Z,8.21
2023-02-01T11:52:48.806Z,8.29
2023-02-01T11:53:49.057Z,8.27
2023-02-01T11:54:48.737Z,8.07
2023-02-01T11:55:48.717Z,8.09
2023-02-01T11:56:48.681Z,8.00
2023-02-01T11:57:48.685Z,8.02
2023-02-01T11:58:48.693Z,8.06
2023-02-01T11:59:56.287Z,8.12
2023-02-01T12:00:49.623Z,8.09
2023-02-01T12:01:48.725Z,8.20
2023-02-01T12:02:48.926Z,8.24
2023-02-01T12:03:48.640Z,8.22
2023-02-01T12:04:48.602Z,8.27
2023-02-01T12:05:48.568Z,8.29
2023-02-01T12:06:48.569Z,8.28
2023-02-01T12:07:48.605Z,8.09
2023-02-01T12:08:48.537Z,8.13
2023-02-01T12:09:48.540Z,8.09
2023-02-01T12:10:48.586Z,8.00
2023-02-01T12:11:48.626Z,8.14
2023-02-01T12:12:48.533Z,8.03
2023-02-01T12:13:48.487Z,8.02
2023-02-01T12:14:48.584Z,8.00
2023-02-01T12:15:48.603Z,8.00
2023-02-01T12:16:48.588Z,8.07
2023-02-01T12:17:48.441Z,7.99
2023-02-01T12:18:48.518Z,7.95
2023-02-01T12:19:48.499Z,7.99
2023-02-01T12:20:48.429Z,7.99
2023-02-01T12:21:48.569Z,8.00
2023-02-01T12:22:48.403Z,8.06
2023-02-01T12:23:48.376Z,8.00
2023-02-01T12:24:48.384Z,7.96
2023-02-01T12:25:48.446Z,8.02
2023-02-01T12:26:48.406Z,8.02
2023-02-01T12:27:48.367Z,8.02
2023-02-01T12:28:48.410Z,7.95
2023-02-01T12:29:48.380Z,7.84
2023-02-01T12:30:48.483Z,7.86
2023-02-01T12:31:48.428Z,7.91
2023-02-01T12:32:48.293Z,7.79
2023-02-01T12:33:48.277Z,7.66
2023-02-01T12:34:48.286Z,7.67
2023-02-01T12:35:48.250Z,7.62
2023-02-01T12:36:48.236Z,7.52
2023-02-01T12:37:48.403Z,7.52
2023-02-01T12:38:48.337Z,7.48
2023-02-01T12:39:48.202Z,7.37
2023-02-01T12:40:48.193Z,7.54
2023-02-01T12:41:48.230Z,7.48
2023-02-01T12:42:48.185Z,7.54
2023-02-01T12:43:48.162Z,7.54
2023-02-01T12:44:48.282Z,7.47
2023-02-01T12:45:48.243Z,7.62
2023-02-01T12:46:48.265Z,7.57
2023-02-01T12:47:51.698Z,7.63
2023-02-01T12:48:48.104Z,7.62
2023-02-01T12:49:48.095Z,7.54
2023-02-01T12:50:48.104Z,7.55
2023-02-01T12:51:48.085Z,7.55
2023-02-01T12:52:48.076Z,7.48
2023-02-01T12:53:48.159Z,7.52
2023-02-01T12:54:48.050Z,7.52
2023-02-01T12:55:49.908Z,7.47
2023-02-01T12:56:48.322Z,7.39
2023-02-01T12:57:48.030Z,7.44
2023-02-01T12:58:48.033Z,7.44
2023-02-01T12:59:48.526Z,7.41
2023-02-01T13:00:48.039Z,7.50
2023-02-01T13:01:48.511Z,7.44
2023-02-01T13:02:48.000Z,7.55
2023-02-01T13:03:47.946Z,7.58
2023-02-01T13:04:48.728Z,7.62
2023-02-01T13:05:48.164Z,7.54
2023-02-01T13:06:47.913Z,7.60
2023-02-01T13:07:47.919Z,7.55
2023-02-01T13:08:47.890Z,7.47
2023-02-01T13:09:47.882Z,7.42
2023-02-01T13:10:47.888Z,7.51
2023-02-01T13:11:48.093Z,7.48
2023-02-01T13:12:47.869Z,7.45
2023-02-01T13:13:48.917Z,7.41
2023-02-01T13:14:47.876Z,7.42
2023-02-01T13:15:47.820Z,7.50
2023-02-01T13:16:47.879Z,7.41
2023-02-01T13:17:47.820Z,7.41
2023-02-01T13:18:47.785Z,7.37